Time;durP1;ratioP1;P1;durP2;ratioP2;P2;SDS_P1;SDS_P2;PMS_P1;PMS_P2;Temp;Humidity;BMP_temperature;BMP_pressure;BME280_temperature;BME280_humidity;BME280_pressure;Samples;Min_cycle;Max_cycle;Signal;HPM_P1;HPM_P2
2021/09/12 00:00:45;;;;;;;51.33;31.33;;;17.80;99.90;;;;;;5093279;28;20038;-75
2021/09/12 00:03:11;;;;;;;55.45;32.53;;;17.80;99.90;;;;;;5093548;28;20404;-76
2021/09/12 00:05:37;;;;;;;62.33;33.35;;;17.80;99.90;;;;;;5092319;28;20039;-75
2021/09/12 00:08:03;;;;;;;59.38;32.88;;;17.80;99.90;;;;;;5094286;28;20036;-76
2021/09/12 00:10:29;;;;;;;58.03;33.58;;;17.80;99.90;;;;;;5091936;28;20046;-76
2021/09/12 00:12:56;;;;;;;53.65;30.70;;;17.80;99.90;;;;;;5093401;28;20044;-76
2021/09/12 00:15:22;;;;;;;60.85;32.30;;;17.80;99.90;;;;;;5093411;28;20040;-75
2021/09/12 00:17:48;;;;;;;53.38;32.30;;;17.80;99.90;;;;;;5093729;28;20044;-77
2021/09/12 00:20:14;;;;;;;65.38;32.80;;;17.80;99.90;;;;;;5091778;28;20039;-77
2021/09/12 00:22:39;;;;;;;55.42;33.05;;;17.80;99.90;;;;;;5092698;28;20071;-76
2021/09/12 00:25:06;;;;;;;58.03;32.03;;;17.80;99.90;;;;;;5092420;28;20392;-76
2021/09/12 00:27:32;;;;;;;52.10;31.75;;;17.70;99.90;;;;;;5092449;28;20040;-75
2021/09/12 00:29:57;;;;;;;66.88;35.00;;;17.70;99.90;;;;;;5092034;28;20044;-76
2021/09/12 00:32:24;;;;;;;60.22;33.67;;;17.70;99.90;;;;;;5091973;28;20044;-76
2021/09/12 00:34:50;;;;;;;62.10;34.58;;;17.70;99.90;;;;;;5092264;28;20058;-76
2021/09/12 00:37:15;;;;;;;67.90;34.80;;;17.70;99.90;;;;;;5075428;28;20040;-76
2021/09/12 00:39:41;;;;;;;71.70;36.60;;;17.70;99.90;;;;;;5091904;28;20050;-77
2021/09/12 00:42:07;;;;;;;67.90;34.17;;;17.70;99.90;;;;;;5093242;28;20119;-76
2021/09/12 00:44:32;;;;;;;59.00;32.90;;;17.70;99.90;;;;;;5093051;28;20043;-76
2021/09/12 00:47:08;;;;;;;62.53;32.30;;;17.70;99.90;;;;;;5075345;28;20051;-77
2021/09/12 00:49:33;;;;;;;56.67;31.40;;;17.70;99.90;;;;;;5091870;28;20115;-77
2021/09/12 00:52:01;;;;;;;63.05;32.90;;;17.70;99.90;;;;;;5093674;28;20187;-75
2021/09/12 00:54:29;;;;;;;64.60;33.75;;;17.70;99.90;;;;;;5093214;28;20036;-77
2021/09/12 00:56:55;;;;;;;60.20;33.70;;;17.70;99.90;;;;;;5092952;28;20123;-77
2021/09/12 00:59:22;;;;;;;58.10;32.85;;;17.70;99.90;;;;;;5092854;28;20047;-75
2021/09/12 01:01:48;;;;;;;63.78;33.95;;;17.70;99.90;;;;;;5092200;28;20364;-75
2021/09/12 01:04:14;;;;;;;58.45;32.22;;;17.70;99.90;;;;;;5093634;28;20044;-77
2021/09/12 01:06:40;;;;;;;64.95;33.95;;;17.70;99.90;;;;;;5097274;28;20032;-76
2021/09/12 01:09:06;;;;;;;54.58;32.17;;;17.70;99.90;;;;;;5095446;28;20511;-76
2021/09/12 01:11:32;;;;;;;54.92;31.63;;;17.70;99.90;;;;;;5096879;28;20111;-76
2021/09/12 01:13:57;;;;;;;55.85;32.47;;;17.70;99.90;;;;;;5097135;28;20032;-75
2021/09/12 01:16:23;;;;;;;54.83;31.45;;;17.60;99.90;;;;;;5095508;28;20097;-76
2021/09/12 01:18:49;;;;;;;58.25;32.50;;;17.70;99.90;;;;;;5096762;28;20040;-77
2021/09/12 01:21:18;;;;;;;56.63;30.02;;;17.60;99.90;;;;;;5096884;28;20044;-76
2021/09/12 01:23:44;;;;;;;57.53;29.17;;;17.60;99.90;;;;;;5095659;28;20054;-76
2021/09/12 01:26:10;;;;;;;52.42;27.42;;;17.60;99.90;;;;;;5096793;28;20036;-75
2021/09/12 01:28:39;;;;;;;48.50;26.33;;;17.60;99.90;;;;;;5096421;28;20484;-77
2021/09/12 01:31:05;;;;;;;54.20;28.55;;;17.70;99.90;;;;;;5095581;28;20547;-75
2021/09/12 01:33:31;;;;;;;46.83;26.85;;;17.60;99.90;;;;;;5096290;28;20040;-76
2021/09/12 01:35:57;;;;;;;52.15;26.98;;;17.60;99.90;;;;;;5096403;28;20104;-76
2021/09/12 01:38:22;;;;;;;52.85;26.08;;;17.60;99.90;;;;;;5096377;28;20040;-77
2021/09/12 01:40:48;;;;;;;58.90;28.38;;;17.60;99.90;;;;;;5096080;28;20096;-77
2021/09/12 01:43:14;;;;;;;50.40;28.33;;;17.60;99.90;;;;;;5095080;28;20126;-76
2021/09/12 01:45:39;;;;;;;63.95;29.02;;;17.60;99.90;;;;;;5096213;28;20138;-76
2021/09/12 01:48:05;;;;;;;59.80;29.80;;;17.60;99.90;;;;;;5095028;28;20039;-76
2021/09/12 01:50:32;;;;;;;55.67;28.55;;;17.60;99.90;;;;;;5094863;28;20032;-75
2021/09/12 01:52:58;;;;;;;53.30;29.42;;;17.60;99.90;;;;;;5095965;28;20040;-75
2021/09/12 01:55:23;;;;;;;50.72;26.83;;;17.60;99.90;;;;;;5096613;28;20055;-75
2021/09/12 01:57:49;;;;;;;52.95;28.02;;;17.60;99.90;;;;;;5094890;28;20072;-76
2021/09/12 02:00:15;;;;;;;57.03;28.70;;;17.60;99.90;;;;;;5095920;28;20068;-76
2021/09/12 02:02:40;;;;;;;54.25;25.50;;;17.70;99.90;;;;;;5096246;28;20036;-75
2021/09/12 02:05:07;;;;;;;46.22;26.48;;;17.60;99.90;;;;;;5094776;28;20050;-76
2021/09/12 02:07:33;;;;;;;48.38;25.27;;;17.60;99.90;;;;;;5094499;28;20082;-76
2021/09/12 02:09:58;;;;;;;51.08;24.95;;;17.60;99.90;;;;;;5095551;28;20127;-75
2021/09/12 02:12:24;;;;;;;49.40;24.83;;;17.60;99.90;;;;;;5094640;28;20445;-75
2021/09/12 02:14:50;;;;;;;54.78;24.52;;;17.60;99.90;;;;;;5095759;28;20522;-76
2021/09/12 02:17:16;;;;;;;46.75;24.08;;;17.50;99.90;;;;;;5095114;28;20120;-75
2021/09/12 02:19:41;;;;;;;46.72;22.40;;;17.50;99.90;;;;;;5095161;28;20039;-76
2021/09/12 02:22:07;;;;;;;42.95;22.33;;;17.50;99.90;;;;;;5095730;28;20044;-76
2021/09/12 02:24:34;;;;;;;37.85;21.52;;;17.50;99.90;;;;;;5095469;28;20463;-76
2021/09/12 02:26:59;;;;;;;43.17;22.50;;;17.40;99.90;;;;;;5095346;28;20123;-77
2021/09/12 02:29:28;;;;;;;43.40;21.52;;;17.40;99.90;;;;;;5094289;28;20187;-76
2021/09/12 02:31:54;;;;;;;42.85;22.10;;;17.40;99.90;;;;;;5095631;28;20039;-76
2021/09/12 02:34:19;;;;;;;42.47;20.70;;;17.40;99.90;;;;;;5094377;28;20093;-75
2021/09/12 02:36:46;;;;;;;44.65;20.58;;;17.40;99.90;;;;;;5094192;28;20115;-75
2021/09/12 02:39:12;;;;;;;40.55;20.58;;;17.30;99.90;;;;;;5076991;28;20079;-76
2021/09/12 02:41:38;;;;;;;37.22;21.30;;;17.30;99.90;;;;;;5095268;28;20075;-76
2021/09/12 02:44:04;;;;;;;39.10;19.50;;;17.30;99.90;;;;;;5094314;28;20044;-75
2021/09/12 02:46:31;;;;;;;39.45;19.35;;;17.30;99.90;;;;;;5095211;28;20039;-75
2021/09/12 02:48:57;;;;;;;39.00;20.13;;;17.30;99.90;;;;;;5094971;28;20040;-75
2021/09/12 02:51:23;;;;;;;41.13;19.85;;;17.20;99.90;;;;;;5094882;28;20135;-76
2021/09/12 02:53:48;;;;;;;39.17;18.73;;;17.20;99.90;;;;;;5095316;28;20182;-76
2021/09/12 02:56:14;;;;;;;39.35;18.73;;;17.10;99.90;;;;;;5093771;28;20452;-76
2021/09/12 02:58:39;;;;;;;35.08;19.48;;;17.10;99.90;;;;;;5093512;28;20071;-76
2021/09/12 03:01:05;;;;;;;37.70;19.27;;;17.20;99.90;;;;;;5094141;28;20066;-76
2021/09/12 03:03:31;;;;;;;33.25;18.27;;;17.20;99.90;;;;;;5094059;28;20488;-76
2021/09/12 03:05:57;;;;;;;33.88;17.67;;;17.10;99.90;;;;;;5094799;28;20040;-77
2021/09/12 03:08:22;;;;;;;32.17;18.02;;;17.10;99.90;;;;;;5076703;28;20486;-77
2021/09/12 03:10:48;;;;;;;39.78;18.23;;;17.10;99.90;;;;;;5094446;28;20040;-76
2021/09/12 03:13:13;;;;;;;30.38;17.17;;;17.10;99.90;;;;;;5093345;28;20090;-76
2021/09/12 03:15:39;;;;;;;32.58;16.75;;;17.10;99.90;;;;;;5093396;28;20370;-75
2021/09/12 03:18:05;;;;;;;42.22;18.40;;;17.00;99.90;;;;;;5094480;28;20111;-76
2021/09/12 03:20:30;;;;;;;32.03;16.70;;;16.90;99.90;;;;;;5092854;28;20509;-76
2021/09/12 03:22:56;;;;;;;34.42;17.13;;;17.00;99.90;;;;;;5092988;28;20047;-77
2021/09/12 03:25:22;;;;;;;35.03;17.10;;;17.00;99.90;;;;;;5094679;28;20040;-75
2021/09/12 03:27:47;;;;;;;35.33;15.85;;;17.00;99.90;;;;;;5093027;28;20396;-76
2021/09/12 03:30:13;;;;;;;31.27;15.82;;;17.10;99.90;;;;;;5094129;28;20070;-76
2021/09/12 03:32:39;;;;;;;30.88;14.85;;;17.10;99.90;;;;;;5093052;28;20052;-75
2021/09/12 03:35:05;;;;;;;31.33;14.90;;;17.10;99.90;;;;;;5076211;28;20039;-76
2021/09/12 03:37:31;;;;;;;33.22;15.82;;;17.10;99.90;;;;;;5093046;28;20146;-76
2021/09/12 03:39:57;;;;;;;28.73;14.93;;;17.00;99.90;;;;;;5092685;28;20177;-77
2021/09/12 03:42:22;;;;;;;37.47;15.40;;;17.10;99.90;;;;;;5092839;28;20066;-76
2021/09/12 03:44:48;;;;;;;31.15;16.27;;;17.10;99.90;;;;;;5094138;28;20144;-76
2021/09/12 03:47:14;;;;;;;28.15;13.48;;;17.00;99.90;;;;;;5093003;28;20044;-76
2021/09/12 03:49:40;;;;;;;25.85;14.07;;;17.00;99.90;;;;;;5092293;28;20511;-75
2021/09/12 03:52:06;;;;;;;28.80;13.13;;;17.00;99.90;;;;;;5093594;28;20036;-76
2021/09/12 03:54:31;;;;;;;24.40;13.00;;;17.00;99.90;;;;;;5092598;28;20036;-77
2021/09/12 03:56:57;;;;;;;28.75;12.48;;;17.00;99.90;;;;;;5092465;28;20081;-76
2021/09/12 03:59:22;;;;;;;25.35;12.10;;;17.00;99.90;;;;;;5092129;28;20115;-76
2021/09/12 04:01:48;;;;;;;28.38;13.48;;;17.00;99.90;;;;;;5093504;28;20040;-76
2021/09/12 04:04:13;;;;;;;25.08;12.95;;;16.90;99.90;;;;;;5093887;28;20039;-75
2021/09/12 04:06:39;;;;;;;24.17;11.75;;;16.90;99.90;;;;;;5092738;28;20484;-75
2021/09/12 04:09:04;;;;;;;26.65;13.23;;;16.90;99.90;;;;;;5075314;28;20473;-75
2021/09/12 04:11:30;;;;;;;27.42;12.05;;;16.90;99.90;;;;;;5092479;28;20046;-76
2021/09/12 04:13:56;;;;;;;23.92;11.48;;;16.90;99.90;;;;;;5075729;28;20044;-75
2021/09/12 04:16:21;;;;;;;24.83;12.30;;;16.80;99.90;;;;;;5093433;28;20058;-75
2021/09/12 04:18:47;;;;;;;27.60;12.65;;;16.80;99.90;;;;;;5091951;28;20093;-76
2021/09/12 04:21:12;;;;;;;31.45;13.00;;;16.80;99.90;;;;;;5093251;28;20089;-77
2021/09/12 04:23:38;;;;;;;27.48;12.50;;;16.80;99.90;;;;;;5075512;28;20048;-76
2021/09/12 04:26:04;;;;;;;26.20;13.60;;;16.80;99.90;;;;;;5093462;28;20040;-76
2021/09/12 04:28:29;;;;;;;25.77;13.18;;;16.80;99.90;;;;;;5093467;28;20032;-75
2021/09/12 04:30:56;;;;;;;25.63;12.30;;;16.80;99.90;;;;;;5093237;28;20374;-75
2021/09/12 04:33:21;;;;;;;26.88;13.23;;;16.70;99.90;;;;;;5091954;28;20066;-75
2021/09/12 04:35:47;;;;;;;29.25;12.93;;;16.70;99.90;;;;;;5092580;28;20119;-76
2021/09/12 04:38:13;;;;;;;26.73;13.40;;;16.70;99.90;;;;;;5094254;28;20384;-76
2021/09/12 04:40:41;;;;;;;28.75;13.52;;;16.70;99.90;;;;;;5098599;28;20051;-76
2021/09/12 04:43:07;;;;;;;27.70;13.55;;;16.60;99.90;;;;;;5098905;28;20487;-75
2021/09/12 04:45:32;;;;;;;28.13;14.02;;;16.60;99.90;;;;;;5099267;28;20040;-76
2021/09/12 04:47:58;;;;;;;32.13;13.93;;;16.70;99.90;;;;;;5099548;28;20433;-75
2021/09/12 04:50:24;;;;;;;27.35;13.10;;;16.70;99.90;;;;;;5098389;28;20055;-76
2021/09/12 04:52:49;;;;;;;35.40;13.75;;;16.60;99.90;;;;;;5098790;28;20036;-76
2021/09/12 04:55:15;;;;;;;24.52;14.07;;;16.60;99.90;;;;;;5099030;28;20036;-75
2021/09/12 04:57:41;;;;;;;32.40;14.27;;;16.70;99.90;;;;;;5100392;28;20059;-76
2021/09/12 05:00:07;;;;;;;27.27;13.82;;;16.70;99.90;;;;;;5098700;28;20358;-76
2021/09/12 05:02:32;;;;;;;29.40;14.35;;;16.60;99.90;;;;;;5100209;28;20039;-74
2021/09/12 05:04:58;;;;;;;34.38;13.82;;;16.70;99.90;;;;;;5098496;28;20052;-75
2021/09/12 05:07:23;;;;;;;24.13;12.80;;;16.70;99.90;;;;;;5098470;28;20043;-76
2021/09/12 05:09:49;;;;;;;25.90;13.18;;;16.70;99.90;;;;;;5098277;28;20498;-76
2021/09/12 05:12:15;;;;;;;26.98;14.18;;;16.60;99.90;;;;;;5081747;28;20143;-76
2021/09/12 05:14:40;;;;;;;31.73;13.35;;;16.60;99.90;;;;;;5098523;28;20044;-75
2021/09/12 05:17:06;;;;;;;31.40;13.52;;;16.60;99.90;;;;;;5081686;28;20395;-76
2021/09/12 05:19:32;;;;;;;29.63;14.05;;;16.60;99.90;;;;;;5098094;28;20503;-76
2021/09/12 05:21:57;;;;;;;29.90;13.38;;;16.60;99.90;;;;;;5098491;28;20118;-75
2021/09/12 05:24:23;;;;;;;29.70;13.43;;;16.60;99.90;;;;;;5098441;28;20036;-76
2021/09/12 05:26:49;;;;;;;27.92;12.57;;;16.60;99.90;;;;;;5098525;28;20055;-76
2021/09/12 05:29:16;;;;;;;26.80;13.40;;;16.60;99.90;;;;;;5099215;28;20407;-76
2021/09/12 05:31:42;;;;;;;25.77;13.63;;;16.60;99.90;;;;;;5099485;28;20404;-75
2021/09/12 05:34:07;;;;;;;30.85;13.85;;;16.60;99.90;;;;;;5098770;28;20044;-75
2021/09/12 05:36:33;;;;;;;28.67;13.35;;;16.60;99.90;;;;;;5099633;28;20063;-75
2021/09/12 05:38:58;;;;;;;30.00;14.23;;;16.60;99.90;;;;;;5099251;28;20514;-76
2021/09/12 05:41:24;;;;;;;29.08;12.60;;;16.60;99.90;;;;;;5098241;28;20070;-76
2021/09/12 05:43:50;;;;;;;26.10;11.70;;;16.70;99.90;;;;;;5081769;28;20086;-76
2021/09/12 05:46:15;;;;;;;26.30;12.73;;;16.70;99.90;;;;;;5081715;28;20082;-75
2021/09/12 05:48:41;;;;;;;27.15;12.63;;;16.70;99.90;;;;;;5099255;28;20035;-76
2021/09/12 05:51:06;;;;;;;28.17;12.88;;;16.70;99.90;;;;;;5095970;28;20047;-76
2021/09/12 05:53:32;;;;;;;23.70;11.52;;;16.70;99.90;;;;;;5094892;28;20044;-76
2021/09/12 05:55:58;;;;;;;25.88;12.30;;;16.70;99.90;;;;;;5078189;28;20032;-75
2021/09/12 05:58:24;;;;;;;27.05;12.77;;;16.70;99.90;;;;;;5094717;28;20032;-76
2021/09/12 06:00:50;;;;;;;31.25;12.80;;;16.70;99.90;;;;;;5096629;28;20035;-75
2021/09/12 06:03:16;;;;;;;24.83;12.48;;;16.80;99.90;;;;;;5095436;28;20048;-76
2021/09/12 06:05:42;;;;;;;24.70;12.80;;;16.80;99.90;;;;;;5096062;28;20450;-75
2021/09/12 06:08:07;;;;;;;25.23;12.30;;;16.80;99.90;;;;;;5094778;28;20079;-76
2021/09/12 06:10:33;;;;;;;23.92;11.68;;;16.80;99.90;;;;;;5095661;28;20122;-75
2021/09/12 06:12:59;;;;;;;30.77;12.93;;;16.80;99.90;;;;;;5094327;28;20508;-75
2021/09/12 06:15:25;;;;;;;29.40;11.68;;;16.80;99.90;;;;;;5094764;28;20054;-76
2021/09/12 06:17:51;;;;;;;25.63;11.73;;;16.80;99.90;;;;;;5095613;28;20032;-74
2021/09/12 06:20:16;;;;;;;30.73;12.80;;;16.80;99.90;;;;;;5095336;28;20028;-75
2021/09/12 06:22:44;;;;;;;31.13;11.93;;;16.80;99.90;;;;;;5095853;28;20036;-74
2021/09/12 06:25:10;;;;;;;26.88;12.45;;;16.80;99.90;;;;;;5094292;28;20495;-75
2021/09/12 06:27:36;;;;;;;25.50;11.63;;;16.90;99.90;;;;;;5096048;28;20077;-76
2021/09/12 06:30:01;;;;;;;26.85;11.07;;;16.90;99.90;;;;;;5077056;28;20051;-75
2021/09/12 06:32:27;;;;;;;24.38;10.75;;;16.90;99.90;;;;;;5094292;28;20040;-74
2021/09/12 06:34:52;;;;;;;24.00;10.95;;;16.90;99.90;;;;;;5095412;28;20036;-75
2021/09/12 06:37:18;;;;;;;26.58;11.40;;;16.90;99.90;;;;;;5095611;28;20067;-75
2021/09/12 06:39:46;;;;;;;23.40;10.73;;;16.90;99.90;;;;;;5095488;28;20460;-75
2021/09/12 06:42:12;;;;;;;29.05;12.98;;;17.00;99.90;;;;;;5095151;28;20400;-75
2021/09/12 06:44:38;;;;;;;25.85;10.70;;;17.00;99.90;;;;;;5093848;28;20036;-76
2021/09/12 06:47:04;;;;;;;28.10;11.00;;;17.10;99.90;;;;;;5095047;28;20162;-76
2021/09/12 06:49:29;;;;;;;24.45;11.07;;;17.00;99.90;;;;;;5093466;28;20047;-75
2021/09/12 06:52:00;;;;;;;23.73;11.20;;;17.20;99.90;;;;;;5093907;28;20064;-75
2021/09/12 06:54:26;;;;;;;24.77;12.15;;;17.20;99.90;;;;;;5093835;28;20115;-75
2021/09/12 06:56:51;;;;;;;29.50;12.25;;;17.30;99.90;;;;;;5095170;28;20119;-75
2021/09/12 06:59:17;;;;;;;24.13;12.25;;;17.30;99.90;;;;;;5094599;28;20039;-74
2021/09/12 07:01:43;;;;;;;20.77;11.07;;;17.40;99.90;;;;;;5093187;28;20044;-75
2021/09/12 07:04:08;;;;;;;22.73;12.23;;;17.40;99.90;;;;;;5094867;28;20126;-75
2021/09/12 07:06:34;;;;;;;23.90;11.10;;;17.40;99.90;;;;;;5093719;28;20036;-74
2021/09/12 07:08:59;;;;;;;29.83;12.55;;;17.40;99.90;;;;;;5093349;28;20480;-75
2021/09/12 07:11:25;;;;;;;20.83;11.35;;;17.50;99.90;;;;;;5076261;28;20036;-76
2021/09/12 07:13:50;;;;;;;21.63;11.77;;;17.60;99.90;;;;;;5091610;28;20040;-75
2021/09/12 07:16:18;;;;;;;30.83;12.57;;;17.60;99.90;;;;;;5093520;28;20044;-76
2021/09/12 07:18:44;;;;;;;30.10;12.30;;;17.60;99.90;;;;;;5094541;28;20036;-75
2021/09/12 07:21:10;;;;;;;25.80;11.98;;;17.60;99.90;;;;;;5093011;28;20058;-75
2021/09/12 07:23:39;;;;;;;25.48;13.27;;;17.70;99.90;;;;;;5094531;28;20048;-75
2021/09/12 07:26:04;;;;;;;24.02;12.95;;;17.80;99.90;;;;;;5094484;28;20047;-74
2021/09/12 07:28:30;;;;;;;27.73;13.52;;;17.80;99.90;;;;;;5094331;28;20036;-74
2021/09/12 07:30:56;;;;;;;29.00;13.00;;;17.80;99.90;;;;;;5093382;28;20089;-76
2021/09/12 07:33:22;;;;;;;26.05;13.75;;;17.80;99.90;;;;;;5093056;28;20040;-74
2021/09/12 07:35:47;;;;;;;32.38;14.82;;;17.90;99.90;;;;;;5092991;28;20036;-75
2021/09/12 07:38:13;;;;;;;27.10;13.13;;;17.90;99.90;;;;;;5094420;28;20028;-75
2021/09/12 07:40:39;;;;;;;28.80;14.00;;;17.90;99.90;;;;;;5093826;28;20112;-74
2021/09/12 07:43:05;;;;;;;26.88;13.55;;;17.90;99.90;;;;;;5093003;28;20048;-75
2021/09/12 07:45:33;;;;;;;22.52;13.95;;;17.90;99.90;;;;;;5093131;28;20523;-75
2021/09/12 07:47:59;;;;;;;32.47;14.93;;;18.00;99.90;;;;;;5092885;28;20475;-74
2021/09/12 07:50:25;;;;;;;26.05;14.05;;;18.00;99.90;;;;;;5093634;28;20122;-75
2021/09/12 07:52:50;;;;;;;25.27;14.27;;;18.30;99.90;;;;;;5075845;28;20040;-75
2021/09/12 07:55:16;;;;;;;27.73;14.80;;;18.50;99.90;;;;;;5093996;28;20039;-75
2021/09/12 07:57:42;;;;;;;26.90;14.02;;;18.60;99.90;;;;;;5075889;28;20032;-75
2021/09/12 08:00:09;;;;;;;33.13;14.65;;;18.80;99.90;;;;;;5092408;28;20074;-75
2021/09/12 08:02:34;;;;;;;26.35;13.93;;;18.80;99.90;;;;;;5093701;28;20040;-75
2021/09/12 08:05:00;;;;;;;25.98;14.13;;;18.90;99.90;;;;;;5094155;28;20381;-75
2021/09/12 08:07:29;;;;;;;22.73;13.18;;;18.90;99.90;;;;;;5092849;28;20043;-75
2021/09/12 08:09:55;;;;;;;27.42;13.38;;;19.10;99.90;;;;;;5075193;28;20039;-75
2021/09/12 08:12:21;;;;;;;22.95;14.68;;;19.20;99.90;;;;;;5092381;28;20043;-75
2021/09/12 08:14:46;;;;;;;26.85;14.85;;;19.20;99.90;;;;;;5093115;28;20480;-75
2021/09/12 08:17:12;;;;;;;28.35;14.50;;;19.30;99.90;;;;;;5092356;28;20121;-75
2021/09/12 08:19:38;;;;;;;26.98;15.35;;;19.20;99.90;;;;;;5093434;28;20038;-74
2021/09/12 08:22:04;;;;;;;23.92;14.80;;;19.30;99.90;;;;;;5092716;28;20118;-75
2021/09/12 08:24:30;;;;;;;30.77;16.05;;;19.30;99.90;;;;;;5075463;28;20048;-75
2021/09/12 08:26:56;;;;;;;28.50;14.20;;;19.40;99.90;;;;;;5092998;28;20040;-76
2021/09/12 08:29:21;;;;;;;30.02;14.20;;;19.60;99.90;;;;;;5091929;28;20537;-75
2021/09/12 08:31:47;;;;;;;27.98;14.63;;;19.70;99.90;;;;;;5093818;28;20107;-72
2021/09/12 08:34:12;;;;;;;27.08;13.88;;;19.90;99.90;;;;;;5093518;28;20075;-75
2021/09/12 08:36:38;;;;;;;24.60;13.95;;;20.00;99.90;;;;;;5093663;28;20032;-75
2021/09/12 08:39:04;;;;;;;24.13;13.93;;;20.20;99.90;;;;;;5093467;28;20035;-75
2021/09/12 08:41:34;;;;;;;20.95;13.48;;;20.20;99.90;;;;;;5093441;28;20040;-75
2021/09/12 08:44:00;;;;;;;19.13;13.60;;;20.40;99.90;;;;;;5092375;28;20038;-75
2021/09/12 08:46:25;;;;;;;24.45;13.95;;;20.60;99.90;;;;;;5092155;28;20119;-74
2021/09/12 08:48:51;;;;;;;22.83;13.95;;;20.60;99.90;;;;;;5091798;28;20032;-75
2021/09/12 08:51:17;;;;;;;20.23;12.80;;;20.50;99.90;;;;;;5093215;28;20036;-74
2021/09/12 08:53:43;;;;;;;21.65;14.82;;;20.60;99.90;;;;;;5092424;28;20037;-74
2021/09/12 08:56:09;;;;;;;24.30;13.35;;;20.60;99.90;;;;;;5093156;28;20039;-75
2021/09/12 08:58:35;;;;;;;25.15;13.00;;;20.50;99.90;;;;;;5093040;28;20051;-74
2021/09/12 09:01:02;;;;;;;17.05;11.93;;;20.50;99.90;;;;;;5092169;28;20044;-75
2021/09/12 09:03:41;;;;;;;19.30;12.65;;;20.60;99.90;;;;;;5075087;28;20079;-75
2021/09/12 09:06:18;;;;;;;17.67;12.70;;;20.50;99.90;;;;;;5075526;28;20056;-74
2021/09/12 09:08:55;;;;;;;16.50;11.75;;;20.50;99.90;;;;;;5091679;28;20040;-75
2021/09/12 09:11:32;;;;;;;20.00;12.55;;;20.40;99.90;;;;;;5092317;28;20044;-75
2021/09/12 09:14:19;;;;;;;24.85;13.32;;;20.40;99.90;;;;;;5093212;28;20046;-75
2021/09/12 09:16:47;;;;;;;17.65;12.65;;;20.60;99.90;;;;;;5092024;28;20032;-75
2021/09/12 09:19:13;;;;;;;22.25;12.35;;;20.70;99.90;;;;;;5093021;28;20051;-74
2021/09/12 09:21:44;;;;;;;21.60;11.88;;;20.80;99.90;;;;;;5093408;28;20377;-75
2021/09/12 09:24:29;;;;;;;20.38;11.38;;;20.90;99.90;;;;;;5092131;28;20078;-73
2021/09/12 09:26:57;;;;;;;17.40;12.10;;;21.00;99.90;;;;;;5097195;28;20548;-74
2021/09/12 09:29:23;;;;;;;20.05;11.60;;;21.00;99.90;;;;;;5096590;28;20043;-74
2021/09/12 09:32:11;;;;;;;19.13;11.05;;;20.90;99.90;;;;;;5095456;28;20051;-74
2021/09/12 09:34:39;;;;;;;18.08;11.45;;;20.80;99.90;;;;;;5095387;28;20402;-74
2021/09/12 09:37:16;;;;;;;16.52;12.05;;;20.80;99.90;;;;;;5095222;28;20123;-74
2021/09/12 09:39:45;;;;;;;22.02;14.45;;;20.80;99.90;;;;;;5095086;28;20044;-74
2021/09/12 09:42:32;;;;;;;25.23;15.55;;;20.90;99.90;;;;;;5078132;28;20032;-74
2021/09/12 09:45:00;;;;;;;20.20;14.13;;;20.90;99.90;;;;;;5095934;28;20119;-74
2021/09/12 09:47:29;;;;;;;25.00;15.82;;;20.70;99.90;;;;;;5096519;28;20042;-74
2021/09/12 09:50:15;;;;;;;25.75;16.77;;;20.70;99.90;;;;;;5094646;28;20046;-75
2021/09/12 09:52:46;;;;;;;24.27;17.80;;;20.60;99.90;;;;;;5096240;28;20040;-73
2021/09/12 09:55:16;;;;;;;23.55;16.30;;;20.60;99.90;;;;;;5095642;28;20127;-74
2021/09/12 09:57:47;;;;;;;26.38;16.77;;;20.60;99.90;;;;;;5096766;28;20093;-74
2021/09/12 10:00:13;;;;;;;23.23;16.73;;;20.60;99.90;;;;;;5095537;28;20043;-74
2021/09/12 10:02:40;;;;;;;23.30;16.67;;;20.60;99.90;;;;;;5094584;28;20055;-74
2021/09/12 10:05:08;;;;;;;31.00;17.08;;;20.60;99.90;;;;;;5094890;28;20040;-75
2021/09/12 10:07:35;;;;;;;24.77;17.08;;;20.70;99.90;;;;;;5096110;28;20472;-75
2021/09/12 10:10:04;;;;;;;25.92;17.17;;;20.80;99.90;;;;;;5094516;28;20047;-75
2021/09/12 10:12:30;;;;;;;25.73;16.45;;;20.80;99.90;;;;;;5095711;28;20066;-76
2021/09/12 10:14:58;;;;;;;28.30;17.90;;;20.90;99.90;;;;;;5096132;28;20036;-75
2021/09/12 10:17:35;;;;;;;26.38;17.88;;;20.80;99.90;;;;;;5094618;28;20503;-75
2021/09/12 10:20:10;;;;;;;29.15;17.92;;;20.80;99.90;;;;;;5093844;28;20059;-73
2021/09/12 10:22:58;;;;;;;30.25;18.27;;;20.90;99.90;;;;;;5095328;28;20357;-73
2021/09/12 10:25:25;;;;;;;30.20;18.25;;;20.80;99.90;;;;;;5094382;28;20044;-75
2021/09/12 10:28:03;;;;;;;24.90;17.38;;;20.70;99.90;;;;;;5094705;28;20043;-76
2021/09/12 10:30:43;;;;;;;24.70;17.83;;;20.50;99.90;;;;;;5095687;28;20051;-75
2021/09/12 10:33:12;;;;;;;23.15;16.75;;;20.50;99.90;;;;;;5094525;28;20052;-75
2021/09/12 10:35:48;;;;;;;23.33;17.33;;;20.30;99.90;;;;;;5077267;28;20076;-75
2021/09/12 10:38:35;;;;;;;27.08;17.77;;;20.20;99.90;;;;;;5094732;28;20044;-76
2021/09/12 10:41:01;;;;;;;30.80;18.55;;;20.10;99.90;;;;;;5095486;28;20081;-76
2021/09/12 10:43:33;;;;;;;29.42;18.77;;;19.90;99.90;;;;;;5094053;28;20044;-75
2021/09/12 10:46:05;;;;;;;27.48;18.52;;;19.90;99.90;;;;;;5094114;28;20575;-76
2021/09/12 10:48:41;;;;;;;30.98;19.73;;;19.70;99.90;;;;;;5077170;28;20127;-77
2021/09/12 10:51:09;;;;;;;30.52;20.80;;;19.60;99.90;;;;;;5093971;28;20044;-76
2021/09/12 10:53:47;;;;;;;34.85;22.13;;;19.50;99.90;;;;;;5094282;28;20534;-76
2021/09/12 10:56:17;;;;;;;40.90;24.50;;;19.30;99.90;;;;;;5094292;28;20123;-77
2021/09/12 10:58:44;;;;;;;38.67;25.83;;;19.20;99.90;;;;;;5093581;28;20051;-76
2021/09/12 11:01:13;;;;;;;34.03;23.75;;;19.10;99.90;;;;;;5093526;28;20516;-75
2021/09/12 11:03:45;;;;;;;38.42;23.70;;;19.00;99.90;;;;;;5093483;28;20123;-75
2021/09/12 11:06:20;;;;;;;37.28;25.50;;;18.90;99.90;;;;;;5093765;28;20039;-75
2021/09/12 11:08:46;;;;;;;45.65;26.67;;;18.90;99.90;;;;;;5093782;28;20403;-75
2021/09/12 11:11:11;;;;;;;41.50;26.05;;;18.80;99.90;;;;;;5094701;28;20048;-75
2021/09/12 11:13:39;;;;;;;37.33;25.33;;;18.70;99.90;;;;;;5094598;28;20132;-75
2021/09/12 11:16:09;;;;;;;38.72;25.60;;;18.70;99.90;;;;;;5094772;28;20121;-75
2021/09/12 11:18:42;;;;;;;43.13;26.77;;;18.70;99.90;;;;;;5093420;28;20480;-76
2021/09/12 11:21:07;;;;;;;39.85;26.38;;;18.70;99.90;;;;;;5094845;28;20444;-75
2021/09/12 11:23:37;;;;;;;42.72;26.48;;;18.80;99.90;;;;;;5093791;28;20050;-75
2021/09/12 11:26:03;;;;;;;40.17;26.83;;;18.80;99.90;;;;;;5093189;28;20085;-76
2021/09/12 11:28:31;;;;;;;33.20;23.65;;;18.90;99.90;;;;;;5094207;28;20092;-76
2021/09/12 11:30:57;;;;;;;33.42;22.48;;;19.00;99.90;;;;;;5093450;28;20102;-75
2021/09/12 11:33:50;;;;;;;32.85;22.45;;;19.10;99.90;;;;;;5075975;28;20127;-77
2021/09/12 11:36:16;;;;;;;30.67;19.35;;;19.30;99.90;;;;;;5093460;28;20036;-76
2021/09/12 11:38:42;;;;;;;26.02;16.70;;;19.40;99.90;;;;;;5093339;28;20048;-75
2021/09/12 11:41:08;;;;;;;24.30;17.17;;;19.50;99.90;;;;;;5092763;28;20064;-75
2021/09/12 11:43:36;;;;;;;18.65;13.95;;;19.50;99.90;;;;;;5093013;28;20396;-75
2021/09/12 11:46:04;;;;;;;19.55;13.55;;;19.60;99.90;;;;;;5093312;28;20368;-75
2021/09/12 11:48:30;;;;;;;12.82;10.02;;;19.60;99.90;;;;;;5092044;28;20138;-75
2021/09/12 11:50:55;;;;;;;10.57;7.63;;;19.70;99.90;;;;;;5094474;28;20546;-74
2021/09/12 11:53:25;;;;;;;8.90;6.85;;;19.80;99.90;;;;;;5092611;28;20052;-74
2021/09/12 11:55:51;;;;;;;8.32;6.00;;;19.80;99.90;;;;;;5075802;28;20487;-74
2021/09/12 11:58:17;;;;;;;9.10;5.50;;;19.70;99.90;;;;;;5094019;28;20029;-74
2021/09/12 12:00:47;;;;;;;6.57;4.70;;;19.60;99.90;;;;;;5092481;28;20067;-74
2021/09/12 12:03:15;;;;;;;7.80;4.38;;;19.60;99.90;;;;;;5075991;28;20036;-75
2021/09/12 12:05:42;;;;;;;5.22;2.55;;;19.50;99.90;;;;;;5092303;28;20078;-74
2021/09/12 12:08:13;;;;;;;5.25;1.95;;;19.40;99.90;;;;;;5093632;28;20395;-74
2021/09/12 12:10:39;;;;;;;3.15;1.40;;;19.40;99.90;;;;;;5075452;28;20108;-74
2021/09/12 12:13:06;;;;;;;3.13;1.27;;;19.30;99.90;;;;;;5093544;28;20468;-74
2021/09/12 12:15:37;;;;;;;3.97;1.33;;;19.30;99.90;;;;;;5092925;28;20044;-74
2021/09/12 12:18:17;;;;;;;5.13;1.27;;;19.40;99.90;;;;;;5093910;28;20107;-74
2021/09/12 12:20:44;;;;;;;2.45;1.20;;;19.50;99.90;;;;;;5092059;28;20346;-75
2021/09/12 12:23:18;;;;;;;2.25;1.00;;;19.60;99.90;;;;;;5093279;28;20040;-74
2021/09/12 12:25:45;;;;;;;3.97;1.30;;;19.70;99.90;;;;;;5093486;28;20044;-75
2021/09/12 12:28:20;;;;;;;1.27;0.90;;;19.70;99.90;;;;;;5093519;28;20511;-75